St-Hubert, Belgium
Current Conditions -  °F | °C
As of 12:25 AM on Thursday 23 Oct 2014 (Local Time) from EBFS Reporting Station
Broken Clouds Broken Clouds  
Wind Chill: 44°   Ceiling: 4600
Heat Index: 46°   Visibility: 6mi
Dew Point: 41°   Wind: 6mph
Humidity: 81%   Direction: 260°W
Pressure: 30.24"   Gusts: NA
Location:  50.03°N, 5.4°E
Report Text: EBFS 222225Z 26005KT 9999 FEW024 BKN046 08/05 Q1024 BLU
Loading
Personal Weather Stations






























Interactive Weather Map New forecast layout! Learn more

10-Day Weather Forecast

Advertisements
Track Severe Weather on mobile